sensor_id;sensor_type;location;lat;lon;timestamp;P1;durP1;ratioP1;P2;durP2;ratioP2
22705;SDS011;11520;51.198;4.468;2023-03-01T00:02:25;12.32;;;8.63;;
22705;SDS011;11520;51.198;4.468;2023-03-01T00:04:53;10.52;;;7.43;;
22705;SDS011;11520;51.198;4.468;2023-03-01T00:07:19;12.18;;;8.00;;
22705;SDS011;11520;51.198;4.468;2023-03-01T00:09:45;12.98;;;8.52;;
22705;SDS011;11520;51.198;4.468;2023-03-01T00:12:11;10.95;;;7.88;;
22705;SDS011;11520;51.198;4.468;2023-03-01T00:14:37;11.93;;;8.30;;
22705;SDS011;11520;51.198;4.468;2023-03-01T00:17:03;12.13;;;7.72;;
22705;SDS011;11520;51.198;4.468;2023-03-01T00:19:28;11.57;;;8.20;;
22705;SDS011;11520;51.198;4.468;2023-03-01T00:21:54;11.68;;;8.13;;
22705;SDS011;11520;51.198;4.468;2023-03-01T00:24:20;10.18;;;7.75;;
22705;SDS011;11520;51.198;4.468;2023-03-01T00:26:45;14.18;;;7.95;;
22705;SDS011;11520;51.198;4.468;2023-03-01T00:29:13;13.00;;;7.85;;
22705;SDS011;11520;51.198;4.468;2023-03-01T00:31:39;13.90;;;7.65;;
22705;SDS011;11520;51.198;4.468;2023-03-01T00:34:06;12.77;;;8.93;;
22705;SDS011;11520;51.198;4.468;2023-03-01T00:36:36;12.05;;;8.70;;
22705;SDS011;11520;51.198;4.468;2023-03-01T00:39:04;12.65;;;8.55;;
22705;SDS011;11520;51.198;4.468;2023-03-01T00:41:36;12.18;;;8.75;;
22705;SDS011;11520;51.198;4.468;2023-03-01T00:44:03;12.73;;;8.73;;
22705;SDS011;11520;51.198;4.468;2023-03-01T00:46:29;11.45;;;8.52;;
22705;SDS011;11520;51.198;4.468;2023-03-01T00:48:58;12.93;;;9.05;;
22705;SDS011;11520;51.198;4.468;2023-03-01T00:51:27;12.48;;;7.85;;
22705;SDS011;11520;51.198;4.468;2023-03-01T00:53:54;13.68;;;8.57;;
22705;SDS011;11520;51.198;4.468;2023-03-01T00:56:21;12.18;;;8.75;;
22705;SDS011;11520;51.198;4.468;2023-03-01T00:58:48;12.75;;;8.93;;
22705;SDS011;11520;51.198;4.468;2023-03-01T01:01:15;14.25;;;8.63;;
22705;SDS011;11520;51.198;4.468;2023-03-01T01:06:13;11.85;;;8.02;;
22705;SDS011;11520;51.198;4.468;2023-03-01T01:08:39;13.45;;;8.43;;
22705;SDS011;11520;51.198;4.468;2023-03-01T01:11:05;13.60;;;8.60;;
22705;SDS011;11520;51.198;4.468;2023-03-01T01:13:34;13.98;;;9.07;;
22705;SDS011;11520;51.198;4.468;2023-03-01T01:16:01;12.25;;;8.50;;
22705;SDS011;11520;51.198;4.468;2023-03-01T01:18:28;11.70;;;8.70;;
22705;SDS011;11520;51.198;4.468;2023-03-01T01:20:55;14.15;;;8.38;;
22705;SDS011;11520;51.198;4.468;2023-03-01T01:23:21;11.82;;;8.63;;
22705;SDS011;11520;51.198;4.468;2023-03-01T01:25:46;10.95;;;8.48;;
22705;SDS011;11520;51.198;4.468;2023-03-01T01:28:12;12.73;;;8.57;;
22705;SDS011;11520;51.198;4.468;2023-03-01T01:30:38;14.35;;;8.68;;
22705;SDS011;11520;51.198;4.468;2023-03-01T01:33:04;12.43;;;8.80;;
22705;SDS011;11520;51.198;4.468;2023-03-01T01:35:30;14.45;;;9.48;;
22705;SDS011;11520;51.198;4.468;2023-03-01T01:37:55;13.18;;;8.68;;
22705;SDS011;11520;51.198;4.468;2023-03-01T01:40:21;14.48;;;9.50;;
22705;SDS011;11520;51.198;4.468;2023-03-01T01:42:47;13.63;;;9.30;;
22705;SDS011;11520;51.198;4.468;2023-03-01T01:45:32;15.50;;;9.77;;
22705;SDS011;11520;51.198;4.468;2023-03-01T01:48:03;13.00;;;8.32;;
22705;SDS011;11520;51.198;4.468;2023-03-01T01:50:35;12.60;;;8.35;;
22705;SDS011;11520;51.198;4.468;2023-03-01T01:53:06;14.68;;;8.60;;
22705;SDS011;11520;51.198;4.468;2023-03-01T01:55:44;11.18;;;8.32;;
22705;SDS011;11520;51.198;4.468;2023-03-01T01:58:13;14.60;;;8.95;;
22705;SDS011;11520;51.198;4.468;2023-03-01T02:00:42;13.35;;;9.02;;
22705;SDS011;11520;51.198;4.468;2023-03-01T02:03:19;11.82;;;9.15;;
22705;SDS011;11520;51.198;4.468;2023-03-01T02:08:20;13.40;;;9.32;;
22705;SDS011;11520;51.198;4.468;2023-03-01T02:10:49;13.38;;;9.20;;
22705;SDS011;11520;51.198;4.468;2023-03-01T02:13:17;14.38;;;8.50;;
22705;SDS011;11520;51.198;4.468;2023-03-01T02:15:43;13.77;;;8.80;;
22705;SDS011;11520;51.198;4.468;2023-03-01T02:18:10;12.50;;;8.35;;
22705;SDS011;11520;51.198;4.468;2023-03-01T02:23:07;15.77;;;8.15;;
22705;SDS011;11520;51.198;4.468;2023-03-01T02:28:43;12.13;;;8.27;;
22705;SDS011;11520;51.198;4.468;2023-03-01T02:31:13;13.90;;;8.65;;
22705;SDS011;11520;51.198;4.468;2023-03-01T02:34:00;12.60;;;8.90;;
22705;SDS011;11520;51.198;4.468;2023-03-01T02:36:30;11.18;;;7.95;;
22705;SDS011;11520;51.198;4.468;2023-03-01T02:39:00;12.98;;;9.13;;
22705;SDS011;11520;51.198;4.468;2023-03-01T02:41:31;13.27;;;8.90;;
22705;SDS011;11520;51.198;4.468;2023-03-01T02:44:17;13.85;;;8.68;;
22705;SDS011;11520;51.198;4.468;2023-03-01T02:46:47;11.57;;;8.23;;
22705;SDS011;11520;51.198;4.468;2023-03-01T02:49:18;13.83;;;8.90;;
22705;SDS011;11520;51.198;4.468;2023-03-01T02:57:07;14.23;;;9.52;;
22705;SDS011;11520;51.198;4.468;2023-03-01T02:59:34;12.77;;;9.07;;
22705;SDS011;11520;51.198;4.468;2023-03-01T03:02:07;11.38;;;8.57;;
22705;SDS011;11520;51.198;4.468;2023-03-01T03:04:45;14.82;;;8.93;;
22705;SDS011;11520;51.198;4.468;2023-03-01T03:07:11;13.13;;;8.98;;
22705;SDS011;11520;51.198;4.468;2023-03-01T03:09:38;15.80;;;8.43;;
22705;SDS011;11520;51.198;4.468;2023-03-01T03:12:03;10.63;;;8.48;;
22705;SDS011;11520;51.198;4.468;2023-03-01T03:14:29;13.60;;;9.18;;
22705;SDS011;11520;51.198;4.468;2023-03-01T03:16:55;11.52;;;8.70;;
22705;SDS011;11520;51.198;4.468;2023-03-01T03:19:20;11.93;;;9.25;;
22705;SDS011;11520;51.198;4.468;2023-03-01T03:21:47;12.55;;;9.02;;
22705;SDS011;11520;51.198;4.468;2023-03-01T03:24:14;17.75;;;9.52;;
22705;SDS011;11520;51.198;4.468;2023-03-01T03:26:40;13.07;;;8.48;;
22705;SDS011;11520;51.198;4.468;2023-03-01T03:29:05;13.27;;;8.70;;
22705;SDS011;11520;51.198;4.468;2023-03-01T03:31:31;15.88;;;8.63;;
22705;SDS011;11520;51.198;4.468;2023-03-01T03:33:58;13.10;;;9.18;;
22705;SDS011;11520;51.198;4.468;2023-03-01T03:36:25;13.95;;;9.25;;
22705;SDS011;11520;51.198;4.468;2023-03-01T03:38:51;15.60;;;8.52;;
22705;SDS011;11520;51.198;4.468;2023-03-01T03:41:17;13.70;;;8.90;;
22705;SDS011;11520;51.198;4.468;2023-03-01T03:43:43;13.85;;;8.43;;
22705;SDS011;11520;51.198;4.468;2023-03-01T03:46:09;12.15;;;8.52;;
22705;SDS011;11520;51.198;4.468;2023-03-01T03:48:38;17.38;;;9.65;;
22705;SDS011;11520;51.198;4.468;2023-03-01T03:51:09;13.73;;;9.23;;
22705;SDS011;11520;51.198;4.468;2023-03-01T03:53:37;21.17;;;11.00;;
22705;SDS011;11520;51.198;4.468;2023-03-01T03:56:04;11.13;;;8.55;;
22705;SDS011;11520;51.198;4.468;2023-03-01T03:58:30;15.52;;;9.52;;
22705;SDS011;11520;51.198;4.468;2023-03-01T04:00:57;12.25;;;8.43;;
22705;SDS011;11520;51.198;4.468;2023-03-01T04:03:25;14.45;;;8.73;;
22705;SDS011;11520;51.198;4.468;2023-03-01T04:05:53;10.15;;;8.13;;
22705;SDS011;11520;51.198;4.468;2023-03-01T04:08:19;13.82;;;8.88;;
22705;SDS011;11520;51.198;4.468;2023-03-01T04:10:47;12.00;;;8.35;;
22705;SDS011;11520;51.198;4.468;2023-03-01T04:13:18;10.93;;;8.40;;
22705;SDS011;11520;51.198;4.468;2023-03-01T04:15:51;16.40;;;9.05;;
22705;SDS011;11520;51.198;4.468;2023-03-01T04:18:21;13.05;;;9.07;;
22705;SDS011;11520;51.198;4.468;2023-03-01T04:20:48;15.00;;;9.57;;
22705;SDS011;11520;51.198;4.468;2023-03-01T04:23:17;13.23;;;9.32;;
22705;SDS011;11520;51.198;4.468;2023-03-01T04:28:18;16.48;;;8.60;;
22705;SDS011;11520;51.198;4.468;2023-03-01T04:30:53;13.20;;;8.88;;
22705;SDS011;11520;51.198;4.468;2023-03-01T04:35:52;15.70;;;8.90;;
22705;SDS011;11520;51.198;4.468;2023-03-01T04:38:20;11.63;;;8.05;;
22705;SDS011;11520;51.198;4.468;2023-03-01T04:40:50;16.05;;;9.65;;
22705;SDS011;11520;51.198;4.468;2023-03-01T04:43:16;14.88;;;9.00;;
22705;SDS011;11520;51.198;4.468;2023-03-01T04:45:42;12.50;;;8.95;;
22705;SDS011;11520;51.198;4.468;2023-03-01T04:48:14;14.88;;;9.27;;
22705;SDS011;11520;51.198;4.468;2023-03-01T04:50:41;15.88;;;8.90;;
22705;SDS011;11520;51.198;4.468;2023-03-01T04:53:07;14.13;;;9.40;;
22705;SDS011;11520;51.198;4.468;2023-03-01T04:55:36;14.38;;;8.77;;
22705;SDS011;11520;51.198;4.468;2023-03-01T05:00:31;14.05;;;10.02;;
22705;SDS011;11520;51.198;4.468;2023-03-01T05:02:59;15.07;;;9.00;;
22705;SDS011;11520;51.198;4.468;2023-03-01T05:05:32;15.07;;;8.88;;
22705;SDS011;11520;51.198;4.468;2023-03-01T05:08:00;15.30;;;9.07;;
22705;SDS011;11520;51.198;4.468;2023-03-01T05:10:31;17.40;;;9.65;;
22705;SDS011;11520;51.198;4.468;2023-03-01T05:12:58;14.38;;;10.15;;
22705;SDS011;11520;51.198;4.468;2023-03-01T05:15:26;14.70;;;9.13;;
22705;SDS011;11520;51.198;4.468;2023-03-01T05:17:53;15.30;;;9.32;;
22705;SDS011;11520;51.198;4.468;2023-03-01T05:20:21;17.58;;;9.52;;
22705;SDS011;11520;51.198;4.468;2023-03-01T05:22:50;16.13;;;10.07;;
22705;SDS011;11520;51.198;4.468;2023-03-01T05:25:17;18.17;;;9.50;;
22705;SDS011;11520;51.198;4.468;2023-03-01T05:27:44;16.85;;;9.32;;
22705;SDS011;11520;51.198;4.468;2023-03-01T05:30:10;17.83;;;10.68;;
22705;SDS011;11520;51.198;4.468;2023-03-01T05:32:42;18.13;;;10.48;;
22705;SDS011;11520;51.198;4.468;2023-03-01T05:35:12;18.35;;;10.00;;
22705;SDS011;11520;51.198;4.468;2023-03-01T05:37:40;13.95;;;9.20;;
22705;SDS011;11520;51.198;4.468;2023-03-01T05:40:07;16.33;;;9.32;;
22705;SDS011;11520;51.198;4.468;2023-03-01T05:42:40;15.88;;;9.95;;
22705;SDS011;11520;51.198;4.468;2023-03-01T05:45:10;18.00;;;9.57;;
22705;SDS011;11520;51.198;4.468;2023-03-01T05:47:37;17.27;;;9.88;;
22705;SDS011;11520;51.198;4.468;2023-03-01T05:50:12;15.02;;;10.40;;
22705;SDS011;11520;51.198;4.468;2023-03-01T05:53:06;16.30;;;9.73;;
22705;SDS011;11520;51.198;4.468;2023-03-01T05:55:35;17.05;;;10.27;;
22705;SDS011;11520;51.198;4.468;2023-03-01T05:58:02;13.38;;;9.57;;
22705;SDS011;11520;51.198;4.468;2023-03-01T06:00:30;14.65;;;9.40;;
22705;SDS011;11520;51.198;4.468;2023-03-01T06:02:57;17.35;;;10.25;;
22705;SDS011;11520;51.198;4.468;2023-03-01T06:05:24;16.17;;;9.57;;
22705;SDS011;11520;51.198;4.468;2023-03-01T06:07:51;15.50;;;9.65;;
22705;SDS011;11520;51.198;4.468;2023-03-01T06:10:18;15.75;;;9.95;;
22705;SDS011;11520;51.198;4.468;2023-03-01T06:12:46;15.13;;;9.50;;
22705;SDS011;11520;51.198;4.468;2023-03-01T06:15:15;14.98;;;9.55;;
22705;SDS011;11520;51.198;4.468;2023-03-01T06:17:43;13.50;;;9.35;;
22705;SDS011;11520;51.198;4.468;2023-03-01T06:20:12;17.45;;;10.15;;
22705;SDS011;11520;51.198;4.468;2023-03-01T06:22:40;16.55;;;9.48;;
22705;SDS011;11520;51.198;4.468;2023-03-01T06:25:07;16.55;;;10.05;;
22705;SDS011;11520;51.198;4.468;2023-03-01T06:27:34;19.45;;;10.25;;
22705;SDS011;11520;51.198;4.468;2023-03-01T06:30:00;17.30;;;9.45;;
22705;SDS011;11520;51.198;4.468;2023-03-01T06:32:26;17.48;;;11.13;;
22705;SDS011;11520;51.198;4.468;2023-03-01T06:34:52;17.48;;;10.32;;
22705;SDS011;11520;51.198;4.468;2023-03-01T06:37:19;15.20;;;10.02;;
22705;SDS011;11520;51.198;4.468;2023-03-01T06:39:44;19.95;;;11.20;;
22705;SDS011;11520;51.198;4.468;2023-03-01T06:42:10;22.67;;;10.25;;
22705;SDS011;11520;51.198;4.468;2023-03-01T06:44:36;20.15;;;10.38;;
22705;SDS011;11520;51.198;4.468;2023-03-01T06:47:02;18.92;;;10.43;;
22705;SDS011;11520;51.198;4.468;2023-03-01T06:49:28;18.42;;;10.40;;
22705;SDS011;11520;51.198;4.468;2023-03-01T06:51:56;20.17;;;10.02;;
22705;SDS011;11520;51.198;4.468;2023-03-01T06:54:23;21.92;;;10.02;;
22705;SDS011;11520;51.198;4.468;2023-03-01T06:56:49;19.63;;;10.40;;
22705;SDS011;11520;51.198;4.468;2023-03-01T06:59:15;21.65;;;10.00;;
22705;SDS011;11520;51.198;4.468;2023-03-01T07:01:41;17.85;;;10.02;;
22705;SDS011;11520;51.198;4.468;2023-03-01T07:04:08;18.75;;;10.80;;
22705;SDS011;11520;51.198;4.468;2023-03-01T07:06:36;20.60;;;10.75;;
22705;SDS011;11520;51.198;4.468;2023-03-01T07:09:02;19.60;;;10.38;;
22705;SDS011;11520;51.198;4.468;2023-03-01T07:11:29;17.77;;;10.13;;
22705;SDS011;11520;51.198;4.468;2023-03-01T07:13:55;17.40;;;10.23;;
22705;SDS011;11520;51.198;4.468;2023-03-01T07:16:21;18.10;;;9.30;;
22705;SDS011;11520;51.198;4.468;2023-03-01T07:18:47;19.00;;;9.43;;
22705;SDS011;11520;51.198;4.468;2023-03-01T07:21:13;14.73;;;9.98;;
22705;SDS011;11520;51.198;4.468;2023-03-01T07:23:42;18.05;;;9.32;;
22705;SDS011;11520;51.198;4.468;2023-03-01T07:26:07;15.98;;;9.13;;
22705;SDS011;11520;51.198;4.468;2023-03-01T07:28:33;15.63;;;9.63;;
22705;SDS011;11520;51.198;4.468;2023-03-01T07:31:04;15.93;;;9.73;;
22705;SDS011;11520;51.198;4.468;2023-03-01T07:33:31;18.30;;;9.30;;
22705;SDS011;11520;51.198;4.468;2023-03-01T07:35:58;16.17;;;9.70;;
22705;SDS011;11520;51.198;4.468;2023-03-01T07:38:25;17.70;;;9.05;;
22705;SDS011;11520;51.198;4.468;2023-03-01T07:40:51;15.43;;;8.80;;
22705;SDS011;11520;51.198;4.468;2023-03-01T07:43:17;14.77;;;9.30;;
22705;SDS011;11520;51.198;4.468;2023-03-01T07:45:43;18.45;;;9.30;;
22705;SDS011;11520;51.198;4.468;2023-03-01T07:48:10;13.32;;;8.57;;
22705;SDS011;11520;51.198;4.468;2023-03-01T07:50:39;15.10;;;8.88;;
22705;SDS011;11520;51.198;4.468;2023-03-01T07:53:04;16.17;;;9.57;;
22705;SDS011;11520;51.198;4.468;2023-03-01T07:55:32;15.27;;;9.98;;
22705;SDS011;11520;51.198;4.468;2023-03-01T07:57:58;15.30;;;9.20;;
22705;SDS011;11520;51.198;4.468;2023-03-01T08:00:35;12.55;;;8.88;;
22705;SDS011;11520;51.198;4.468;2023-03-01T08:03:01;14.73;;;9.32;;
22705;SDS011;11520;51.198;4.468;2023-03-01T08:05:27;11.15;;;7.93;;
22705;SDS011;11520;51.198;4.468;2023-03-01T08:07:54;18.33;;;8.50;;
22705;SDS011;11520;51.198;4.468;2023-03-01T08:10:21;16.42;;;8.07;;
22705;SDS011;11520;51.198;4.468;2023-03-01T08:12:46;11.55;;;6.85;;
22705;SDS011;11520;51.198;4.468;2023-03-01T08:15:12;14.30;;;6.78;;
22705;SDS011;11520;51.198;4.468;2023-03-01T08:17:39;14.63;;;7.07;;
22705;SDS011;11520;51.198;4.468;2023-03-01T08:20:06;12.27;;;7.05;;
22705;SDS011;11520;51.198;4.468;2023-03-01T08:22:32;12.85;;;6.65;;
22705;SDS011;11520;51.198;4.468;2023-03-01T08:24:58;14.43;;;6.82;;
22705;SDS011;11520;51.198;4.468;2023-03-01T08:27:24;9.80;;;6.32;;
22705;SDS011;11520;51.198;4.468;2023-03-01T08:29:51;9.30;;;6.68;;
22705;SDS011;11520;51.198;4.468;2023-03-01T08:32:17;7.95;;;6.63;;
22705;SDS011;11520;51.198;4.468;2023-03-01T08:34:50;10.98;;;6.90;;
22705;SDS011;11520;51.198;4.468;2023-03-01T08:37:16;11.35;;;6.43;;
22705;SDS011;11520;51.198;4.468;2023-03-01T08:39:43;15.07;;;7.13;;
22705;SDS011;11520;51.198;4.468;2023-03-01T08:42:09;12.80;;;6.80;;
22705;SDS011;11520;51.198;4.468;2023-03-01T08:44:37;11.43;;;6.40;;
22705;SDS011;11520;51.198;4.468;2023-03-01T08:47:03;11.93;;;6.22;;
22705;SDS011;11520;51.198;4.468;2023-03-01T08:49:29;14.95;;;7.38;;
22705;SDS011;11520;51.198;4.468;2023-03-01T08:51:58;10.57;;;6.65;;
22705;SDS011;11520;51.198;4.468;2023-03-01T08:54:25;11.25;;;7.00;;
22705;SDS011;11520;51.198;4.468;2023-03-01T08:56:54;11.98;;;7.22;;
22705;SDS011;11520;51.198;4.468;2023-03-01T08:59:20;8.52;;;6.75;;
22705;SDS011;11520;51.198;4.468;2023-03-01T09:01:48;9.38;;;6.90;;
22705;SDS011;11520;51.198;4.468;2023-03-01T09:04:17;11.63;;;7.03;;
22705;SDS011;11520;51.198;4.468;2023-03-01T09:09:57;13.02;;;8.10;;
22705;SDS011;11520;51.198;4.468;2023-03-01T09:14:53;11.95;;;7.47;;
22705;SDS011;11520;51.198;4.468;2023-03-01T09:17:23;12.48;;;6.95;;
22705;SDS011;11520;51.198;4.468;2023-03-01T09:19:49;8.93;;;6.53;;
22705;SDS011;11520;51.198;4.468;2023-03-01T09:22:15;8.93;;;6.55;;
22705;SDS011;11520;51.198;4.468;2023-03-01T09:24:41;10.88;;;7.00;;
22705;SDS011;11520;51.198;4.468;2023-03-01T09:27:15;14.07;;;6.95;;
22705;SDS011;11520;51.198;4.468;2023-03-01T09:29:46;10.45;;;6.30;;
22705;SDS011;11520;51.198;4.468;2023-03-01T09:34:42;10.85;;;6.88;;
22705;SDS011;11520;51.198;4.468;2023-03-01T09:37:28;8.30;;;6.63;;
22705;SDS011;11520;51.198;4.468;2023-03-01T09:39:54;12.18;;;6.43;;
22705;SDS011;11520;51.198;4.468;2023-03-01T09:42:21;11.40;;;6.28;;
22705;SDS011;11520;51.198;4.468;2023-03-01T09:44:54;16.05;;;7.35;;
22705;SDS011;11520;51.198;4.468;2023-03-01T09:47:28;9.63;;;6.55;;
22705;SDS011;11520;51.198;4.468;2023-03-01T09:50:04;9.07;;;6.28;;
22705;SDS011;11520;51.198;4.468;2023-03-01T10:01:20;12.02;;;6.82;;
22705;SDS011;11520;51.198;4.468;2023-03-01T10:10:26;11.68;;;6.53;;
22705;SDS011;11520;51.198;4.468;2023-03-01T10:19:23;10.75;;;6.57;;
22705;SDS011;11520;51.198;4.468;2023-03-01T10:22:09;9.43;;;6.55;;
22705;SDS011;11520;51.198;4.468;2023-03-01T10:24:53;8.75;;;6.05;;
22705;SDS011;11520;51.198;4.468;2023-03-01T10:27:22;9.63;;;6.72;;
22705;SDS011;11520;51.198;4.468;2023-03-01T10:32:26;7.15;;;6.05;;
22705;SDS011;11520;51.198;4.468;2023-03-01T10:34:54;12.35;;;6.57;;
22705;SDS011;11520;51.198;4.468;2023-03-01T10:37:20;7.70;;;5.90;;
22705;SDS011;11520;51.198;4.468;2023-03-01T10:40:01;10.52;;;6.00;;
22705;SDS011;11520;51.198;4.468;2023-03-01T10:42:35;13.00;;;6.40;;
22705;SDS011;11520;51.198;4.468;2023-03-01T10:48:11;11.32;;;6.97;;
22705;SDS011;11520;51.198;4.468;2023-03-01T10:50:43;7.95;;;5.90;;
22705;SDS011;11520;51.198;4.468;2023-03-01T10:53:20;6.90;;;6.18;;
22705;SDS011;11520;51.198;4.468;2023-03-01T10:55:58;8.65;;;5.70;;
22705;SDS011;11520;51.198;4.468;2023-03-01T10:58:34;7.70;;;5.70;;
22705;SDS011;11520;51.198;4.468;2023-03-01T11:01:02;8.48;;;6.28;;
22705;SDS011;11520;51.198;4.468;2023-03-01T11:03:31;11.48;;;6.10;;
22705;SDS011;11520;51.198;4.468;2023-03-01T11:06:04;9.95;;;6.10;;
22705;SDS011;11520;51.198;4.468;2023-03-01T11:08:45;12.30;;;6.38;;
22705;SDS011;11520;51.198;4.468;2023-03-01T11:11:31;11.15;;;6.25;;
22705;SDS011;11520;51.198;4.468;2023-03-01T11:16:36;8.65;;;5.85;;
22705;SDS011;11520;51.198;4.468;2023-03-01T11:21:38;8.77;;;5.75;;
22705;SDS011;11520;51.198;4.468;2023-03-01T11:24:15;9.02;;;5.75;;
22705;SDS011;11520;51.198;4.468;2023-03-01T11:26:44;9.55;;;6.32;;
22705;SDS011;11520;51.198;4.468;2023-03-01T11:32:28;8.15;;;5.65;;
22705;SDS011;11520;51.198;4.468;2023-03-01T11:35:12;7.47;;;5.53;;
22705;SDS011;11520;51.198;4.468;2023-03-01T11:37:45;8.20;;;5.63;;
22705;SDS011;11520;51.198;4.468;2023-03-01T11:40:29;8.93;;;6.00;;
22705;SDS011;11520;51.198;4.468;2023-03-01T11:49:25;10.32;;;5.22;;
22705;SDS011;11520;51.198;4.468;2023-03-01T11:52:52;7.47;;;5.50;;
22705;SDS011;11520;51.198;4.468;2023-03-01T11:58:06;8.43;;;5.72;;
22705;SDS011;11520;51.198;4.468;2023-03-01T12:06:38;8.32;;;5.80;;
22705;SDS011;11520;51.198;4.468;2023-03-01T12:14:56;7.90;;;5.82;;
22705;SDS011;11520;51.198;4.468;2023-03-01T12:17:31;10.00;;;6.13;;
22705;SDS011;11520;51.198;4.468;2023-03-01T12:26:10;8.30;;;5.30;;
22705;SDS011;11520;51.198;4.468;2023-03-01T12:28:54;9.18;;;5.68;;
22705;SDS011;11520;51.198;4.468;2023-03-01T12:34:34;7.90;;;5.68;;
22705;SDS011;11520;51.198;4.468;2023-03-01T12:39:52;10.05;;;6.03;;
22705;SDS011;11520;51.198;4.468;2023-03-01T12:47:56;8.57;;;5.50;;
22705;SDS011;11520;51.198;4.468;2023-03-01T12:50:37;7.20;;;5.18;;
22705;SDS011;11520;51.198;4.468;2023-03-01T12:53:04;9.65;;;5.20;;
22705;SDS011;11520;51.198;4.468;2023-03-01T12:55:33;9.48;;;5.80;;
22705;SDS011;11520;51.198;4.468;2023-03-01T13:00:36;9.27;;;5.60;;
22705;SDS011;11520;51.198;4.468;2023-03-01T13:11:31;10.23;;;5.32;;
22705;SDS011;11520;51.198;4.468;2023-03-01T13:14:46;10.35;;;5.75;;
22705;SDS011;11520;51.198;4.468;2023-03-01T13:16:51;11.77;;;6.20;;
22705;SDS011;11520;51.198;4.468;2023-03-01T13:21:49;9.32;;;6.07;;
22705;SDS011;11520;51.198;4.468;2023-03-01T13:29:53;8.35;;;5.50;;
22705;SDS011;11520;51.198;4.468;2023-03-01T13:49:05;11.15;;;6.32;;
22705;SDS011;11520;51.198;4.468;2023-03-01T13:54:12;9.20;;;6.13;;
22705;SDS011;11520;51.198;4.468;2023-03-01T13:56:40;8.60;;;5.95;;
22705;SDS011;11520;51.198;4.468;2023-03-01T13:59:18;8.27;;;5.97;;
22705;SDS011;11520;51.198;4.468;2023-03-01T14:01:52;9.20;;;6.22;;
22705;SDS011;11520;51.198;4.468;2023-03-01T14:09:38;8.80;;;5.50;;
22705;SDS011;11520;51.198;4.468;2023-03-01T14:22:49;12.48;;;6.13;;
22705;SDS011;11520;51.198;4.468;2023-03-01T14:25:25;10.73;;;5.95;;
22705;SDS011;11520;51.198;4.468;2023-03-01T14:28:04;9.75;;;6.60;;
22705;SDS011;11520;51.198;4.468;2023-03-01T14:30:44;9.48;;;6.15;;
22705;SDS011;11520;51.198;4.468;2023-03-01T14:33:19;9.25;;;5.95;;
22705;SDS011;11520;51.198;4.468;2023-03-01T14:38:23;9.60;;;5.65;;
22705;SDS011;11520;51.198;4.468;2023-03-01T14:40:57;10.32;;;6.43;;
22705;SDS011;11520;51.198;4.468;2023-03-01T14:45:56;9.82;;;6.30;;
22705;SDS011;11520;51.198;4.468;2023-03-01T14:51:11;11.05;;;6.43;;
22705;SDS011;11520;51.198;4.468;2023-03-01T14:53:37;10.85;;;6.78;;
22705;SDS011;11520;51.198;4.468;2023-03-01T14:56:03;11.93;;;7.18;;
22705;SDS011;11520;51.198;4.468;2023-03-01T14:58:31;12.07;;;6.38;;
22705;SDS011;11520;51.198;4.468;2023-03-01T15:00:58;10.32;;;6.22;;
22705;SDS011;11520;51.198;4.468;2023-03-01T15:03:35;17.67;;;7.68;;
22705;SDS011;11520;51.198;4.468;2023-03-01T15:06:04;10.23;;;6.47;;
22705;SDS011;11520;51.198;4.468;2023-03-01T15:08:32;12.10;;;6.57;;
22705;SDS011;11520;51.198;4.468;2023-03-01T15:11:15;9.77;;;6.68;;
22705;SDS011;11520;51.198;4.468;2023-03-01T15:13:42;9.85;;;6.35;;
22705;SDS011;11520;51.198;4.468;2023-03-01T15:16:12;11.02;;;6.68;;
22705;SDS011;11520;51.198;4.468;2023-03-01T15:18:51;11.23;;;6.40;;
22705;SDS011;11520;51.198;4.468;2023-03-01T15:21:21;7.75;;;5.72;;
22705;SDS011;11520;51.198;4.468;2023-03-01T15:24:05;9.20;;;6.22;;
22705;SDS011;11520;51.198;4.468;2023-03-01T15:26:49;10.75;;;7.00;;
22705;SDS011;11520;51.198;4.468;2023-03-01T15:29:24;8.70;;;6.20;;
22705;SDS011;11520;51.198;4.468;2023-03-01T15:36:57;10.63;;;6.85;;
22705;SDS011;11520;51.198;4.468;2023-03-01T15:42:12;7.95;;;5.88;;
22705;SDS011;11520;51.198;4.468;2023-03-01T15:47:46;9.68;;;6.32;;
22705;SDS011;11520;51.198;4.468;2023-03-01T15:50:27;10.27;;;7.28;;
22705;SDS011;11520;51.198;4.468;2023-03-01T15:53:00;10.48;;;6.65;;
22705;SDS011;11520;51.198;4.468;2023-03-01T15:55:32;12.57;;;6.93;;
22705;SDS011;11520;51.198;4.468;2023-03-01T15:58:00;10.43;;;6.90;;
22705;SDS011;11520;51.198;4.468;2023-03-01T16:00:31;13.35;;;6.65;;
22705;SDS011;11520;51.198;4.468;2023-03-01T16:02:59;8.50;;;6.18;;
22705;SDS011;11520;51.198;4.468;2023-03-01T16:05:26;9.00;;;6.05;;
22705;SDS011;11520;51.198;4.468;2023-03-01T16:07:53;12.60;;;6.63;;
22705;SDS011;11520;51.198;4.468;2023-03-01T16:10:19;10.95;;;6.47;;
22705;SDS011;11520;51.198;4.468;2023-03-01T16:12:47;11.13;;;6.22;;
22705;SDS011;11520;51.198;4.468;2023-03-01T16:15:20;13.90;;;6.07;;
22705;SDS011;11520;51.198;4.468;2023-03-01T16:17:48;12.65;;;6.72;;
22705;SDS011;11520;51.198;4.468;2023-03-01T16:20:14;10.38;;;6.65;;
22705;SDS011;11520;51.198;4.468;2023-03-01T16:25:10;9.82;;;6.32;;
22705;SDS011;11520;51.198;4.468;2023-03-01T16:27:45;10.63;;;7.28;;
22705;SDS011;11520;51.198;4.468;2023-03-01T16:30:13;11.07;;;7.22;;
22705;SDS011;11520;51.198;4.468;2023-03-01T16:32:41;14.45;;;7.30;;
22705;SDS011;11520;51.198;4.468;2023-03-01T16:35:08;10.73;;;6.95;;
22705;SDS011;11520;51.198;4.468;2023-03-01T16:37:37;13.13;;;7.30;;
22705;SDS011;11520;51.198;4.468;2023-03-01T16:40:03;10.25;;;6.47;;
22705;SDS011;11520;51.198;4.468;2023-03-01T16:42:34;9.50;;;7.10;;
22705;SDS011;11520;51.198;4.468;2023-03-01T16:45:01;8.48;;;6.70;;
22705;SDS011;11520;51.198;4.468;2023-03-01T16:47:28;11.15;;;7.15;;
22705;SDS011;11520;51.198;4.468;2023-03-01T16:49:53;15.05;;;7.28;;
22705;SDS011;11520;51.198;4.468;2023-03-01T16:52:20;11.80;;;7.30;;
22705;SDS011;11520;51.198;4.468;2023-03-01T16:54:47;12.40;;;6.80;;
22705;SDS011;11520;51.198;4.468;2023-03-01T16:57:14;14.32;;;7.72;;
22705;SDS011;11520;51.198;4.468;2023-03-01T16:59:40;11.70;;;7.45;;
22705;SDS011;11520;51.198;4.468;2023-03-01T17:02:08;12.75;;;6.85;;
22705;SDS011;11520;51.198;4.468;2023-03-01T17:04:36;11.68;;;7.70;;
22705;SDS011;11520;51.198;4.468;2023-03-01T17:07:02;14.43;;;7.72;;
22705;SDS011;11520;51.198;4.468;2023-03-01T17:09:29;13.50;;;7.40;;
22705;SDS011;11520;51.198;4.468;2023-03-01T17:12:03;11.00;;;7.30;;
22705;SDS011;11520;51.198;4.468;2023-03-01T17:14:29;12.32;;;7.43;;
22705;SDS011;11520;51.198;4.468;2023-03-01T17:16:56;10.27;;;7.55;;
22705;SDS011;11520;51.198;4.468;2023-03-01T17:19:22;13.18;;;7.47;;
22705;SDS011;11520;51.198;4.468;2023-03-01T17:21:48;13.23;;;7.55;;
22705;SDS011;11520;51.198;4.468;2023-03-01T17:24:17;15.10;;;7.25;;
22705;SDS011;11520;51.198;4.468;2023-03-01T17:26:42;11.88;;;7.75;;
22705;SDS011;11520;51.198;4.468;2023-03-01T17:29:08;12.65;;;7.47;;
22705;SDS011;11520;51.198;4.468;2023-03-01T17:31:34;15.77;;;7.72;;
22705;SDS011;11520;51.198;4.468;2023-03-01T17:33:59;12.40;;;8.15;;
22705;SDS011;11520;51.198;4.468;2023-03-01T17:36:25;14.80;;;7.82;;
22705;SDS011;11520;51.198;4.468;2023-03-01T17:38:52;9.77;;;6.80;;
22705;SDS011;11520;51.198;4.468;2023-03-01T17:41:18;11.48;;;7.45;;
22705;SDS011;11520;51.198;4.468;2023-03-01T17:43:47;13.68;;;8.52;;
22705;SDS011;11520;51.198;4.468;2023-03-01T17:46:13;14.38;;;8.43;;
22705;SDS011;11520;51.198;4.468;2023-03-01T17:48:38;15.30;;;8.38;;
22705;SDS011;11520;51.198;4.468;2023-03-01T17:51:06;13.10;;;8.30;;